sensor_id;sensor_type;location;lat;lon;timestamp;P1;durP1;ratioP1;P2;durP2;ratioP2
34196;SDS011;36594;45.192;5.722;2023-03-01T00:00:48;1.20;;;1.10;;
34196;SDS011;36594;45.192;5.722;2023-03-01T00:03:36;1.17;;;1.07;;
34196;SDS011;36594;45.192;5.722;2023-03-01T00:06:25;1.05;;;1.05;;
34196;SDS011;36594;45.192;5.722;2023-03-01T00:09:15;0.90;;;0.90;;
34196;SDS011;36594;45.192;5.722;2023-03-01T00:12:04;0.95;;;0.95;;
34196;SDS011;36594;45.192;5.722;2023-03-01T00:14:54;1.10;;;1.10;;
34196;SDS011;36594;45.192;5.722;2023-03-01T00:17:42;1.00;;;1.00;;
34196;SDS011;36594;45.192;5.722;2023-03-01T00:20:30;1.05;;;1.05;;
34196;SDS011;36594;45.192;5.722;2023-03-01T00:23:19;1.17;;;1.07;;
34196;SDS011;36594;45.192;5.722;2023-03-01T00:26:09;1.02;;;1.00;;
34196;SDS011;36594;45.192;5.722;2023-03-01T00:29:00;0.93;;;0.93;;
34196;SDS011;36594;45.192;5.722;2023-03-01T00:31:49;1.00;;;1.00;;
34196;SDS011;36594;45.192;5.722;2023-03-01T00:34:38;1.12;;;1.12;;
34196;SDS011;36594;45.192;5.722;2023-03-01T00:37:26;1.20;;;1.20;;
34196;SDS011;36594;45.192;5.722;2023-03-01T00:40:14;1.00;;;1.00;;
34196;SDS011;36594;45.192;5.722;2023-03-01T00:43:03;1.07;;;1.07;;
34196;SDS011;36594;45.192;5.722;2023-03-01T00:45:52;1.00;;;1.00;;
34196;SDS011;36594;45.192;5.722;2023-03-01T00:48:40;0.80;;;0.80;;
34196;SDS011;36594;45.192;5.722;2023-03-01T00:51:29;1.00;;;1.00;;
34196;SDS011;36594;45.192;5.722;2023-03-01T00:54:17;1.10;;;1.00;;
34196;SDS011;36594;45.192;5.722;2023-03-01T00:57:07;1.20;;;0.88;;
34196;SDS011;36594;45.192;5.722;2023-03-01T00:59:55;0.90;;;0.90;;
34196;SDS011;36594;45.192;5.722;2023-03-01T01:02:45;0.98;;;0.98;;
34196;SDS011;36594;45.192;5.722;2023-03-01T01:05:34;0.93;;;0.93;;
34196;SDS011;36594;45.192;5.722;2023-03-01T01:08:22;1.20;;;1.20;;
34196;SDS011;36594;45.192;5.722;2023-03-01T01:11:11;0.88;;;0.88;;
34196;SDS011;36594;45.192;5.722;2023-03-01T01:14:00;1.40;;;1.00;;
34196;SDS011;36594;45.192;5.722;2023-03-01T01:16:49;1.10;;;1.10;;
34196;SDS011;36594;45.192;5.722;2023-03-01T01:19:38;0.85;;;0.85;;
34196;SDS011;36594;45.192;5.722;2023-03-01T01:22:26;1.25;;;1.02;;
34196;SDS011;36594;45.192;5.722;2023-03-01T01:25:15;1.05;;;1.00;;
34196;SDS011;36594;45.192;5.722;2023-03-01T01:28:04;1.53;;;1.00;;
34196;SDS011;36594;45.192;5.722;2023-03-01T01:30:52;0.82;;;0.82;;
34196;SDS011;36594;45.192;5.722;2023-03-01T01:33:40;0.98;;;0.98;;
34196;SDS011;36594;45.192;5.722;2023-03-01T01:36:29;1.03;;;1.03;;
34196;SDS011;36594;45.192;5.722;2023-03-01T01:39:18;0.78;;;0.78;;
34196;SDS011;36594;45.192;5.722;2023-03-01T01:42:11;1.10;;;1.10;;
34196;SDS011;36594;45.192;5.722;2023-03-01T01:48:20;0.98;;;0.98;;
34196;SDS011;36594;45.192;5.722;2023-03-01T01:51:13;0.90;;;0.90;;
34196;SDS011;36594;45.192;5.722;2023-03-01T01:54:01;0.80;;;0.80;;
34196;SDS011;36594;45.192;5.722;2023-03-01T01:56:55;1.77;;;1.10;;
34196;SDS011;36594;45.192;5.722;2023-03-01T01:59:45;1.00;;;1.00;;
34196;SDS011;36594;45.192;5.722;2023-03-01T02:02:35;0.90;;;0.90;;
34196;SDS011;36594;45.192;5.722;2023-03-01T02:08:42;1.00;;;1.00;;
34196;SDS011;36594;45.192;5.722;2023-03-01T02:11:31;1.20;;;1.10;;
34196;SDS011;36594;45.192;5.722;2023-03-01T02:14:22;1.00;;;1.00;;
34196;SDS011;36594;45.192;5.722;2023-03-01T02:17:11;0.90;;;0.90;;
34196;SDS011;36594;45.192;5.722;2023-03-01T02:23:08;1.10;;;1.10;;
34196;SDS011;36594;45.192;5.722;2023-03-01T02:26:05;1.00;;;1.00;;
34196;SDS011;36594;45.192;5.722;2023-03-01T02:29:12;0.93;;;0.93;;
34196;SDS011;36594;45.192;5.722;2023-03-01T02:32:00;1.20;;;1.10;;
34196;SDS011;36594;45.192;5.722;2023-03-01T02:34:52;0.90;;;0.90;;
34196;SDS011;36594;45.192;5.722;2023-03-01T02:37:42;0.82;;;0.82;;
34196;SDS011;36594;45.192;5.722;2023-03-01T02:40:33;1.00;;;1.00;;
34196;SDS011;36594;45.192;5.722;2023-03-01T02:43:25;0.90;;;0.90;;
34196;SDS011;36594;45.192;5.722;2023-03-01T02:46:20;1.05;;;1.00;;
34196;SDS011;36594;45.192;5.722;2023-03-01T02:49:23;1.00;;;1.00;;
34196;SDS011;36594;45.192;5.722;2023-03-01T02:52:28;0.90;;;0.90;;
34196;SDS011;36594;45.192;5.722;2023-03-01T02:55:24;1.00;;;1.00;;
34196;SDS011;36594;45.192;5.722;2023-03-01T02:58:14;0.82;;;0.82;;
34196;SDS011;36594;45.192;5.722;2023-03-01T03:01:02;1.00;;;1.00;;
34196;SDS011;36594;45.192;5.722;2023-03-01T03:03:51;1.25;;;1.15;;
34196;SDS011;36594;45.192;5.722;2023-03-01T03:06:39;1.00;;;1.00;;
34196;SDS011;36594;45.192;5.722;2023-03-01T03:09:28;1.10;;;1.10;;
34196;SDS011;36594;45.192;5.722;2023-03-01T03:12:16;0.97;;;0.97;;
34196;SDS011;36594;45.192;5.722;2023-03-01T03:15:05;0.90;;;0.90;;
34196;SDS011;36594;45.192;5.722;2023-03-01T03:17:55;1.50;;;0.90;;
34196;SDS011;36594;45.192;5.722;2023-03-01T03:20:45;1.02;;;0.98;;
34196;SDS011;36594;45.192;5.722;2023-03-01T03:23:34;1.00;;;1.00;;
34196;SDS011;36594;45.192;5.722;2023-03-01T03:26:22;1.10;;;1.10;;
34196;SDS011;36594;45.192;5.722;2023-03-01T03:29:11;1.05;;;1.05;;
34196;SDS011;36594;45.192;5.722;2023-03-01T03:32:00;1.00;;;1.00;;
34196;SDS011;36594;45.192;5.722;2023-03-01T03:34:49;1.10;;;1.10;;
34196;SDS011;36594;45.192;5.722;2023-03-01T03:37:38;1.77;;;1.00;;
34196;SDS011;36594;45.192;5.722;2023-03-01T03:40:46;0.90;;;0.90;;
34196;SDS011;36594;45.192;5.722;2023-03-01T03:43:37;0.90;;;0.90;;
34196;SDS011;36594;45.192;5.722;2023-03-01T03:46:28;1.02;;;1.02;;
34196;SDS011;36594;45.192;5.722;2023-03-01T03:49:17;0.98;;;0.98;;
34196;SDS011;36594;45.192;5.722;2023-03-01T03:52:05;1.02;;;0.98;;
34196;SDS011;36594;45.192;5.722;2023-03-01T03:54:55;0.90;;;0.90;;
34196;SDS011;36594;45.192;5.722;2023-03-01T03:57:44;1.05;;;1.05;;
34196;SDS011;36594;45.192;5.722;2023-03-01T04:00:38;1.00;;;1.00;;
34196;SDS011;36594;45.192;5.722;2023-03-01T04:03:29;1.00;;;1.00;;
34196;SDS011;36594;45.192;5.722;2023-03-01T04:06:18;0.87;;;0.87;;
34196;SDS011;36594;45.192;5.722;2023-03-01T04:09:07;1.20;;;1.10;;
34196;SDS011;36594;45.192;5.722;2023-03-01T04:11:55;0.82;;;0.82;;
34196;SDS011;36594;45.192;5.722;2023-03-01T04:14:44;1.00;;;1.00;;
34196;SDS011;36594;45.192;5.722;2023-03-01T04:17:32;0.80;;;0.80;;
34196;SDS011;36594;45.192;5.722;2023-03-01T04:20:22;1.07;;;1.07;;
34196;SDS011;36594;45.192;5.722;2023-03-01T04:23:16;1.50;;;1.00;;
34196;SDS011;36594;45.192;5.722;2023-03-01T04:26:07;1.13;;;1.13;;
34196;SDS011;36594;45.192;5.722;2023-03-01T04:28:56;1.27;;;1.20;;
34196;SDS011;36594;45.192;5.722;2023-03-01T04:31:44;1.50;;;1.40;;
34196;SDS011;36594;45.192;5.722;2023-03-01T04:34:32;1.80;;;1.70;;
34196;SDS011;36594;45.192;5.722;2023-03-01T04:37:21;1.90;;;1.80;;
34196;SDS011;36594;45.192;5.722;2023-03-01T04:40:10;2.50;;;1.70;;
34196;SDS011;36594;45.192;5.722;2023-03-01T04:43:01;1.95;;;1.85;;
34196;SDS011;36594;45.192;5.722;2023-03-01T04:45:50;1.98;;;1.87;;
34196;SDS011;36594;45.192;5.722;2023-03-01T04:48:39;2.13;;;1.83;;
34196;SDS011;36594;45.192;5.722;2023-03-01T04:51:29;2.08;;;1.87;;
34196;SDS011;36594;45.192;5.722;2023-03-01T04:54:19;1.87;;;1.77;;
34196;SDS011;36594;45.192;5.722;2023-03-01T04:57:08;2.20;;;2.00;;
34196;SDS011;36594;45.192;5.722;2023-03-01T04:59:56;2.05;;;1.95;;
34196;SDS011;36594;45.192;5.722;2023-03-01T05:02:55;1.47;;;1.37;;
34196;SDS011;36594;45.192;5.722;2023-03-01T05:05:46;1.30;;;1.30;;
34196;SDS011;36594;45.192;5.722;2023-03-01T05:08:36;1.40;;;1.30;;
34196;SDS011;36594;45.192;5.722;2023-03-01T05:11:26;1.10;;;1.10;;
34196;SDS011;36594;45.192;5.722;2023-03-01T05:14:16;1.10;;;1.10;;
34196;SDS011;36594;45.192;5.722;2023-03-01T05:17:04;1.40;;;1.10;;
34196;SDS011;36594;45.192;5.722;2023-03-01T05:19:53;1.25;;;1.17;;
34196;SDS011;36594;45.192;5.722;2023-03-01T05:22:42;1.10;;;1.10;;
34196;SDS011;36594;45.192;5.722;2023-03-01T05:25:31;1.23;;;1.20;;
34196;SDS011;36594;45.192;5.722;2023-03-01T05:28:21;1.00;;;1.00;;
34196;SDS011;36594;45.192;5.722;2023-03-01T05:31:09;1.25;;;0.93;;
34196;SDS011;36594;45.192;5.722;2023-03-01T05:33:58;1.40;;;1.20;;
34196;SDS011;36594;45.192;5.722;2023-03-01T05:36:46;1.05;;;1.05;;
34196;SDS011;36594;45.192;5.722;2023-03-01T05:39:37;1.05;;;1.05;;
34196;SDS011;36594;45.192;5.722;2023-03-01T05:42:25;1.30;;;1.20;;
34196;SDS011;36594;45.192;5.722;2023-03-01T05:45:14;1.10;;;1.10;;
34196;SDS011;36594;45.192;5.722;2023-03-01T05:48:05;1.12;;;1.12;;
34196;SDS011;36594;45.192;5.722;2023-03-01T05:50:54;1.03;;;0.93;;
34196;SDS011;36594;45.192;5.722;2023-03-01T05:53:42;1.00;;;1.00;;
34196;SDS011;36594;45.192;5.722;2023-03-01T05:56:37;0.95;;;0.95;;
34196;SDS011;36594;45.192;5.722;2023-03-01T05:59:21;1.00;;;1.00;;
34196;SDS011;36594;45.192;5.722;2023-03-01T06:02:09;1.30;;;1.10;;
34196;SDS011;36594;45.192;5.722;2023-03-01T06:04:58;1.10;;;1.10;;
34196;SDS011;36594;45.192;5.722;2023-03-01T06:07:47;1.10;;;1.10;;
34196;SDS011;36594;45.192;5.722;2023-03-01T06:10:36;1.03;;;1.03;;
34196;SDS011;36594;45.192;5.722;2023-03-01T06:13:25;1.00;;;1.00;;
34196;SDS011;36594;45.192;5.722;2023-03-01T06:16:14;1.00;;;1.00;;
34196;SDS011;36594;45.192;5.722;2023-03-01T06:19:02;0.90;;;0.90;;
34196;SDS011;36594;45.192;5.722;2023-03-01T06:21:50;1.00;;;1.00;;
34196;SDS011;36594;45.192;5.722;2023-03-01T06:24:39;0.90;;;0.90;;
34196;SDS011;36594;45.192;5.722;2023-03-01T06:27:27;1.05;;;1.05;;
34196;SDS011;36594;45.192;5.722;2023-03-01T06:30:16;1.05;;;1.00;;
34196;SDS011;36594;45.192;5.722;2023-03-01T06:33:06;0.85;;;0.82;;
34196;SDS011;36594;45.192;5.722;2023-03-01T06:35:55;1.22;;;1.22;;
34196;SDS011;36594;45.192;5.722;2023-03-01T06:38:44;0.95;;;0.95;;
34196;SDS011;36594;45.192;5.722;2023-03-01T06:41:32;0.88;;;0.88;;
34196;SDS011;36594;45.192;5.722;2023-03-01T06:44:20;1.00;;;1.00;;
34196;SDS011;36594;45.192;5.722;2023-03-01T06:47:09;1.00;;;1.00;;
34196;SDS011;36594;45.192;5.722;2023-03-01T06:49:57;1.10;;;1.00;;
34196;SDS011;36594;45.192;5.722;2023-03-01T06:52:45;0.93;;;0.93;;
34196;SDS011;36594;45.192;5.722;2023-03-01T06:55:34;0.90;;;0.90;;
34196;SDS011;36594;45.192;5.722;2023-03-01T06:58:23;0.90;;;0.90;;
34196;SDS011;36594;45.192;5.722;2023-03-01T07:01:11;1.20;;;1.07;;
34196;SDS011;36594;45.192;5.722;2023-03-01T07:03:59;1.07;;;1.07;;
34196;SDS011;36594;45.192;5.722;2023-03-01T07:06:48;1.00;;;1.00;;
34196;SDS011;36594;45.192;5.722;2023-03-01T07:09:38;0.90;;;0.90;;
34196;SDS011;36594;45.192;5.722;2023-03-01T07:12:26;1.10;;;1.10;;
34196;SDS011;36594;45.192;5.722;2023-03-01T07:15:15;1.00;;;1.00;;
34196;SDS011;36594;45.192;5.722;2023-03-01T07:18:03;0.93;;;0.93;;
34196;SDS011;36594;45.192;5.722;2023-03-01T07:20:52;1.00;;;0.90;;
34196;SDS011;36594;45.192;5.722;2023-03-01T07:23:40;1.00;;;1.00;;
34196;SDS011;36594;45.192;5.722;2023-03-01T07:26:29;1.10;;;1.10;;
34196;SDS011;36594;45.192;5.722;2023-03-01T07:29:18;1.30;;;1.07;;
34196;SDS011;36594;45.192;5.722;2023-03-01T07:32:06;1.00;;;1.00;;
34196;SDS011;36594;45.192;5.722;2023-03-01T07:34:55;0.90;;;0.90;;
34196;SDS011;36594;45.192;5.722;2023-03-01T07:37:44;0.90;;;0.90;;
34196;SDS011;36594;45.192;5.722;2023-03-01T07:40:32;1.02;;;1.02;;
34196;SDS011;36594;45.192;5.722;2023-03-01T07:43:20;1.00;;;1.00;;
34196;SDS011;36594;45.192;5.722;2023-03-01T07:46:09;1.20;;;1.10;;
34196;SDS011;36594;45.192;5.722;2023-03-01T07:48:57;0.90;;;0.90;;
34196;SDS011;36594;45.192;5.722;2023-03-01T07:51:45;1.20;;;1.10;;
34196;SDS011;36594;45.192;5.722;2023-03-01T07:54:34;1.02;;;1.02;;
34196;SDS011;36594;45.192;5.722;2023-03-01T07:57:22;1.00;;;1.00;;
34196;SDS011;36594;45.192;5.722;2023-03-01T08:00:11;0.87;;;0.87;;
34196;SDS011;36594;45.192;5.722;2023-03-01T08:03:01;1.10;;;1.10;;
34196;SDS011;36594;45.192;5.722;2023-03-01T08:05:49;0.90;;;0.90;;
34196;SDS011;36594;45.192;5.722;2023-03-01T08:08:38;1.00;;;1.00;;
34196;SDS011;36594;45.192;5.722;2023-03-01T08:11:27;0.90;;;0.90;;
34196;SDS011;36594;45.192;5.722;2023-03-01T08:14:15;1.00;;;1.00;;
34196;SDS011;36594;45.192;5.722;2023-03-01T08:17:04;1.00;;;1.00;;
34196;SDS011;36594;45.192;5.722;2023-03-01T08:19:52;1.10;;;1.10;;
34196;SDS011;36594;45.192;5.722;2023-03-01T08:22:40;1.10;;;1.10;;
34196;SDS011;36594;45.192;5.722;2023-03-01T08:25:29;0.97;;;0.93;;
34196;SDS011;36594;45.192;5.722;2023-03-01T08:28:17;1.05;;;1.05;;
34196;SDS011;36594;45.192;5.722;2023-03-01T08:31:16;1.00;;;1.00;;
34196;SDS011;36594;45.192;5.722;2023-03-01T08:34:12;1.00;;;1.00;;
34196;SDS011;36594;45.192;5.722;2023-03-01T08:37:01;1.10;;;1.10;;
34196;SDS011;36594;45.192;5.722;2023-03-01T08:39:50;1.00;;;1.00;;
34196;SDS011;36594;45.192;5.722;2023-03-01T08:42:38;0.80;;;0.80;;
34196;SDS011;36594;45.192;5.722;2023-03-01T08:45:27;2.47;;;0.95;;
34196;SDS011;36594;45.192;5.722;2023-03-01T08:48:15;0.93;;;0.93;;
34196;SDS011;36594;45.192;5.722;2023-03-01T08:51:14;1.00;;;1.00;;
34196;SDS011;36594;45.192;5.722;2023-03-01T08:54:10;0.90;;;0.90;;
34196;SDS011;36594;45.192;5.722;2023-03-01T08:56:57;1.17;;;1.07;;
34196;SDS011;36594;45.192;5.722;2023-03-01T08:59:45;1.12;;;1.12;;
34196;SDS011;36594;45.192;5.722;2023-03-01T09:02:34;1.47;;;1.00;;
34196;SDS011;36594;45.192;5.722;2023-03-01T09:05:22;1.07;;;1.07;;
34196;SDS011;36594;45.192;5.722;2023-03-01T09:08:10;1.20;;;1.20;;
34196;SDS011;36594;45.192;5.722;2023-03-01T09:11:01;0.98;;;0.95;;
34196;SDS011;36594;45.192;5.722;2023-03-01T09:13:50;0.93;;;0.93;;
34196;SDS011;36594;45.192;5.722;2023-03-01T09:16:39;1.10;;;1.10;;
34196;SDS011;36594;45.192;5.722;2023-03-01T09:19:27;1.20;;;1.10;;
34196;SDS011;36594;45.192;5.722;2023-03-01T09:22:16;1.17;;;1.17;;
34196;SDS011;36594;45.192;5.722;2023-03-01T09:25:05;1.05;;;1.05;;
34196;SDS011;36594;45.192;5.722;2023-03-01T09:27:54;0.90;;;0.90;;
34196;SDS011;36594;45.192;5.722;2023-03-01T09:30:43;1.17;;;1.17;;
34196;SDS011;36594;45.192;5.722;2023-03-01T09:33:33;1.40;;;1.03;;
34196;SDS011;36594;45.192;5.722;2023-03-01T09:36:23;1.83;;;1.00;;
34196;SDS011;36594;45.192;5.722;2023-03-01T09:39:11;0.98;;;0.98;;
34196;SDS011;36594;45.192;5.722;2023-03-01T09:42:01;1.10;;;1.10;;
34196;SDS011;36594;45.192;5.722;2023-03-01T09:45:06;0.82;;;0.82;;
34196;SDS011;36594;45.192;5.722;2023-03-01T09:47:59;1.00;;;1.00;;
34196;SDS011;36594;45.192;5.722;2023-03-01T09:50:49;1.10;;;1.10;;
34196;SDS011;36594;45.192;5.722;2023-03-01T09:53:39;0.77;;;0.77;;
34196;SDS011;36594;45.192;5.722;2023-03-01T09:56:29;1.20;;;1.10;;
34196;SDS011;36594;45.192;5.722;2023-03-01T09:59:23;0.90;;;0.90;;
34196;SDS011;36594;45.192;5.722;2023-03-01T10:05:25;1.50;;;1.07;;
34196;SDS011;36594;45.192;5.722;2023-03-01T10:08:30;1.20;;;1.20;;
34196;SDS011;36594;45.192;5.722;2023-03-01T10:11:35;1.10;;;1.10;;
34196;SDS011;36594;45.192;5.722;2023-03-01T10:14:31;2.10;;;1.10;;
34196;SDS011;36594;45.192;5.722;2023-03-01T10:17:34;1.10;;;1.10;;
34196;SDS011;36594;45.192;5.722;2023-03-01T10:20:30;0.80;;;0.80;;
34196;SDS011;36594;45.192;5.722;2023-03-01T10:23:15;1.07;;;1.07;;
34196;SDS011;36594;45.192;5.722;2023-03-01T10:31:53;0.88;;;0.88;;
34196;SDS011;36594;45.192;5.722;2023-03-01T10:34:42;1.03;;;1.03;;
34196;SDS011;36594;45.192;5.722;2023-03-01T10:37:30;1.00;;;1.00;;
34196;SDS011;36594;45.192;5.722;2023-03-01T10:40:19;1.10;;;1.10;;
34196;SDS011;36594;45.192;5.722;2023-03-01T10:43:10;1.70;;;1.17;;
34196;SDS011;36594;45.192;5.722;2023-03-01T10:45:59;1.02;;;1.02;;
34196;SDS011;36594;45.192;5.722;2023-03-01T10:49:00;0.95;;;0.95;;
34196;SDS011;36594;45.192;5.722;2023-03-01T10:51:56;1.00;;;1.00;;
34196;SDS011;36594;45.192;5.722;2023-03-01T10:54:51;0.93;;;0.93;;
34196;SDS011;36594;45.192;5.722;2023-03-01T10:57:44;0.93;;;0.93;;
34196;SDS011;36594;45.192;5.722;2023-03-01T11:00:34;1.00;;;1.00;;
34196;SDS011;36594;45.192;5.722;2023-03-01T11:03:26;1.20;;;1.20;;
34196;SDS011;36594;45.192;5.722;2023-03-01T11:06:20;0.90;;;0.90;;
34196;SDS011;36594;45.192;5.722;2023-03-01T11:09:13;0.93;;;0.93;;
34196;SDS011;36594;45.192;5.722;2023-03-01T11:12:05;1.05;;;1.05;;
34196;SDS011;36594;45.192;5.722;2023-03-01T11:14:55;1.10;;;1.10;;
34196;SDS011;36594;45.192;5.722;2023-03-01T11:17:44;1.00;;;1.00;;
34196;SDS011;36594;45.192;5.722;2023-03-01T11:20:36;0.88;;;0.88;;
34196;SDS011;36594;45.192;5.722;2023-03-01T11:23:26;1.00;;;1.00;;
34196;SDS011;36594;45.192;5.722;2023-03-01T11:26:17;1.05;;;1.05;;
34196;SDS011;36594;45.192;5.722;2023-03-01T11:29:12;1.00;;;1.00;;
34196;SDS011;36594;45.192;5.722;2023-03-01T11:32:02;1.62;;;1.10;;
34196;SDS011;36594;45.192;5.722;2023-03-01T11:35:03;1.00;;;1.00;;
34196;SDS011;36594;45.192;5.722;2023-03-01T11:38:16;1.05;;;1.05;;
34196;SDS011;36594;45.192;5.722;2023-03-01T11:41:31;1.10;;;1.10;;
34196;SDS011;36594;45.192;5.722;2023-03-01T11:44:23;1.17;;;1.17;;
34196;SDS011;36594;45.192;5.722;2023-03-01T11:50:41;1.22;;;1.17;;
34196;SDS011;36594;45.192;5.722;2023-03-01T11:56:45;1.20;;;1.20;;
34196;SDS011;36594;45.192;5.722;2023-03-01T12:08:56;1.07;;;1.07;;
34196;SDS011;36594;45.192;5.722;2023-03-01T12:24:54;1.05;;;1.05;;
34196;SDS011;36594;45.192;5.722;2023-03-01T12:28:22;1.00;;;1.00;;
34196;SDS011;36594;45.192;5.722;2023-03-01T12:34:25;1.10;;;1.10;;
34196;SDS011;36594;45.192;5.722;2023-03-01T12:50:00;0.93;;;0.93;;
34196;SDS011;36594;45.192;5.722;2023-03-01T12:53:04;1.12;;;1.12;;
34196;SDS011;36594;45.192;5.722;2023-03-01T12:55:53;1.40;;;1.30;;
34196;SDS011;36594;45.192;5.722;2023-03-01T13:05:40;1.17;;;1.17;;
34196;SDS011;36594;45.192;5.722;2023-03-01T13:08:33;1.87;;;1.27;;
34196;SDS011;36594;45.192;5.722;2023-03-01T13:11:25;1.15;;;1.15;;
34196;SDS011;36594;45.192;5.722;2023-03-01T13:17:29;1.02;;;1.02;;
34196;SDS011;36594;45.192;5.722;2023-03-01T13:20:12;1.30;;;1.30;;
34196;SDS011;36594;45.192;5.722;2023-03-01T13:23:04;1.60;;;1.50;;
34196;SDS011;36594;45.192;5.722;2023-03-01T13:26:01;1.22;;;1.20;;
34196;SDS011;36594;45.192;5.722;2023-03-01T13:29:00;1.37;;;1.27;;
34196;SDS011;36594;45.192;5.722;2023-03-01T13:31:55;1.22;;;1.22;;
34196;SDS011;36594;45.192;5.722;2023-03-01T13:34:47;1.42;;;1.35;;
34196;SDS011;36594;45.192;5.722;2023-03-01T13:37:32;1.45;;;1.35;;
34196;SDS011;36594;45.192;5.722;2023-03-01T13:43:28;1.40;;;1.30;;
34196;SDS011;36594;45.192;5.722;2023-03-01T13:46:20;1.10;;;1.10;;
34196;SDS011;36594;45.192;5.722;2023-03-01T13:49:11;1.22;;;1.22;;
34196;SDS011;36594;45.192;5.722;2023-03-01T13:52:01;1.40;;;1.30;;
34196;SDS011;36594;45.192;5.722;2023-03-01T13:54:49;1.12;;;1.12;;
34196;SDS011;36594;45.192;5.722;2023-03-01T13:57:38;1.60;;;1.50;;
34196;SDS011;36594;45.192;5.722;2023-03-01T14:00:31;1.30;;;1.30;;
34196;SDS011;36594;45.192;5.722;2023-03-01T14:03:25;1.17;;;1.17;;
34196;SDS011;36594;45.192;5.722;2023-03-01T14:06:28;1.50;;;1.40;;
34196;SDS011;36594;45.192;5.722;2023-03-01T14:09:20;1.60;;;1.50;;
34196;SDS011;36594;45.192;5.722;2023-03-01T14:18:29;1.60;;;1.50;;
34196;SDS011;36594;45.192;5.722;2023-03-01T14:21:19;1.60;;;1.50;;
34196;SDS011;36594;45.192;5.722;2023-03-01T14:24:21;1.50;;;1.40;;
34196;SDS011;36594;45.192;5.722;2023-03-01T14:27:15;1.55;;;1.45;;
34196;SDS011;36594;45.192;5.722;2023-03-01T14:30:01;1.70;;;1.60;;
34196;SDS011;36594;45.192;5.722;2023-03-01T14:32:52;1.27;;;1.25;;
34196;SDS011;36594;45.192;5.722;2023-03-01T14:35:42;1.57;;;1.50;;
34196;SDS011;36594;45.192;5.722;2023-03-01T14:38:35;1.40;;;1.30;;
34196;SDS011;36594;45.192;5.722;2023-03-01T14:41:25;1.55;;;1.50;;
34196;SDS011;36594;45.192;5.722;2023-03-01T14:44:17;1.60;;;1.50;;
34196;SDS011;36594;45.192;5.722;2023-03-01T14:47:10;2.22;;;1.62;;
34196;SDS011;36594;45.192;5.722;2023-03-01T14:50:02;1.60;;;1.50;;
34196;SDS011;36594;45.192;5.722;2023-03-01T14:53:01;1.70;;;1.60;;
34196;SDS011;36594;45.192;5.722;2023-03-01T14:55:48;1.70;;;1.60;;
34196;SDS011;36594;45.192;5.722;2023-03-01T14:58:40;1.50;;;1.40;;
34196;SDS011;36594;45.192;5.722;2023-03-01T15:01:29;1.67;;;1.57;;
34196;SDS011;36594;45.192;5.722;2023-03-01T15:04:17;1.47;;;1.37;;
34196;SDS011;36594;45.192;5.722;2023-03-01T15:07:09;1.70;;;1.60;;
34196;SDS011;36594;45.192;5.722;2023-03-01T15:09:59;1.67;;;1.60;;
34196;SDS011;36594;45.192;5.722;2023-03-01T15:12:49;2.90;;;1.70;;
34196;SDS011;36594;45.192;5.722;2023-03-01T15:15:42;1.65;;;1.55;;
34196;SDS011;36594;45.192;5.722;2023-03-01T15:18:33;1.50;;;1.50;;
34196;SDS011;36594;45.192;5.722;2023-03-01T15:21:24;1.75;;;1.65;;
34196;SDS011;36594;45.192;5.722;2023-03-01T15:24:25;1.60;;;1.50;;
34196;SDS011;36594;45.192;5.722;2023-03-01T15:27:19;1.43;;;1.43;;
34196;SDS011;36594;45.192;5.722;2023-03-01T15:30:13;1.70;;;1.60;;
34196;SDS011;36594;45.192;5.722;2023-03-01T15:39:42;1.40;;;1.40;;
34196;SDS011;36594;45.192;5.722;2023-03-01T15:45:26;1.90;;;1.80;;
34196;SDS011;36594;45.192;5.722;2023-03-01T15:48:17;1.65;;;1.57;;
34196;SDS011;36594;45.192;5.722;2023-03-01T15:51:09;1.70;;;1.60;;
34196;SDS011;36594;45.192;5.722;2023-03-01T15:53:59;1.80;;;1.70;;
34196;SDS011;36594;45.192;5.722;2023-03-01T15:56:50;1.90;;;1.80;;
34196;SDS011;36594;45.192;5.722;2023-03-01T15:59:38;1.62;;;1.52;;
34196;SDS011;36594;45.192;5.722;2023-03-01T16:02:26;1.70;;;1.50;;
34196;SDS011;36594;45.192;5.722;2023-03-01T16:05:26;1.80;;;1.70;;
34196;SDS011;36594;45.192;5.722;2023-03-01T16:08:17;1.92;;;1.77;;
34196;SDS011;36594;45.192;5.722;2023-03-01T16:11:13;1.82;;;1.72;;
34196;SDS011;36594;45.192;5.722;2023-03-01T16:13:57;1.75;;;1.67;;
34196;SDS011;36594;45.192;5.722;2023-03-01T16:16:46;1.70;;;1.60;;
34196;SDS011;36594;45.192;5.722;2023-03-01T16:19:36;1.65;;;1.55;;
34196;SDS011;36594;45.192;5.722;2023-03-01T16:22:25;1.60;;;1.60;;
34196;SDS011;36594;45.192;5.722;2023-03-01T16:25:16;1.80;;;1.70;;
34196;SDS011;36594;45.192;5.722;2023-03-01T16:28:06;1.67;;;1.57;;
34196;SDS011;36594;45.192;5.722;2023-03-01T16:30:57;1.80;;;1.70;;
34196;SDS011;36594;45.192;5.722;2023-03-01T16:33:47;2.57;;;1.73;;
34196;SDS011;36594;45.192;5.722;2023-03-01T16:36:37;1.70;;;1.60;;
34196;SDS011;36594;45.192;5.722;2023-03-01T16:39:25;1.97;;;1.87;;
34196;SDS011;36594;45.192;5.722;2023-03-01T16:42:14;1.80;;;1.70;;
34196;SDS011;36594;45.192;5.722;2023-03-01T16:45:03;1.90;;;1.80;;
34196;SDS011;36594;45.192;5.722;2023-03-01T16:47:53;1.80;;;1.70;;
34196;SDS011;36594;45.192;5.722;2023-03-01T16:50:42;1.82;;;1.72;;
34196;SDS011;36594;45.192;5.722;2023-03-01T16:53:30;1.42;;;1.42;;
34196;SDS011;36594;45.192;5.722;2023-03-01T16:56:20;1.90;;;1.80;;
34196;SDS011;36594;45.192;5.722;2023-03-01T16:59:08;2.17;;;1.98;;
34196;SDS011;36594;45.192;5.722;2023-03-01T17:01:57;2.10;;;2.00;;
34196;SDS011;36594;45.192;5.722;2023-03-01T17:04:45;1.70;;;1.60;;
34196;SDS011;36594;45.192;5.722;2023-03-01T17:07:41;1.60;;;1.50;;
34196;SDS011;36594;45.192;5.722;2023-03-01T17:10:29;1.82;;;1.72;;
34196;SDS011;36594;45.192;5.722;2023-03-01T17:13:19;1.90;;;1.80;;
34196;SDS011;36594;45.192;5.722;2023-03-01T17:16:08;1.87;;;1.77;;
34196;SDS011;36594;45.192;5.722;2023-03-01T17:18:58;1.92;;;1.82;;
34196;SDS011;36594;45.192;5.722;2023-03-01T17:21:47;1.77;;;1.67;;
34196;SDS011;36594;45.192;5.722;2023-03-01T17:24:36;3.33;;;1.62;;
34196;SDS011;36594;45.192;5.722;2023-03-01T17:27:25;1.75;;;1.65;;
34196;SDS011;36594;45.192;5.722;2023-03-01T17:30:15;2.05;;;1.95;;
34196;SDS011;36594;45.192;5.722;2023-03-01T17:33:04;2.10;;;1.60;;
34196;SDS011;36594;45.192;5.722;2023-03-01T17:35:52;1.55;;;1.47;;
34196;SDS011;36594;45.192;5.722;2023-03-01T17:38:41;1.65;;;1.55;;
34196;SDS011;36594;45.192;5.722;2023-03-01T17:41:29;1.90;;;1.67;;
34196;SDS011;36594;45.192;5.722;2023-03-01T17:44:18;1.75;;;1.65;;
34196;SDS011;36594;45.192;5.722;2023-03-01T17:47:07;1.50;;;1.50;;
34196;SDS011;36594;45.192;5.722;2023-03-01T17:49:56;1.85;;;1.75;;
34196;SDS011;36594;45.192;5.722;2023-03-01T17:52:45;1.90;;;1.80;;
34196;SDS011;36594;45.192;5.722;2023-03-01T17:55:36;1.90;;;1.80;;
34196;SDS011;36594;45.192;5.722;2023-03-01T17:58:26;1.67;;;1.57;;
34196;SDS011;36594;45.192;5.722;2023-03-01T18:01:16;1.83;;;1.73;;
34196;SDS011;36594;45.192;5.722;2023-03-01T18:04:06;1.90;;;1.80;;
34196;SDS011;36594;45.192;5.722;2023-03-01T18:06:54;1.80;;;1.70;;
34196;SDS011;36594;45.192;5.722;2023-03-01T18:09:43;1.70;;;1.60;;
34196;SDS011;36594;45.192;5.722;2023-03-01T18:12:32;1.80;;;1.70;;
34196;SDS011;36594;45.192;5.722;2023-03-01T18:15:20;1.62;;;1.52;;
34196;SDS011;36594;45.192;5.722;2023-03-01T18:18:09;1.87;;;1.77;;
34196;SDS011;36594;45.192;5.722;2023-03-01T18:20:57;1.92;;;1.82;;
34196;SDS011;36594;45.192;5.722;2023-03-01T18:23:46;1.87;;;1.77;;
34196;SDS011;36594;45.192;5.722;2023-03-01T18:26:35;1.90;;;1.80;;
34196;SDS011;36594;45.192;5.722;2023-03-01T18:29:24;1.47;;;1.40;;
34196;SDS011;36594;45.192;5.722;2023-03-01T18:32:12;1.75;;;1.65;;
34196;SDS011;36594;45.192;5.722;2023-03-01T18:35:01;1.62;;;1.52;;
34196;SDS011;36594;45.192;5.722;2023-03-01T18:37:49;1.87;;;1.77;;
34196;SDS011;36594;45.192;5.722;2023-03-01T18:40:37;2.20;;;2.00;;